Time;durP1;ratioP1;P1;durP2;ratioP2;P2;SDS_P1;SDS_P2;PMS_P1;PMS_P2;Temp;Humidity;BMP_temperature;BMP_pressure;BME280_temperature;BME280_humidity;BME280_pressure;Samples;Min_cycle;Max_cycle;Signal;HPM_P1;HPM_P2
2023/08/19 00:01:30;;;;;;;38.88;32.75;;;20.20;99.90;;;;;;5112831;27;20060;-81
2023/08/19 00:03:55;;;;;;;36.50;30.30;;;20.30;99.90;;;;;;5130548;27;20084;-80
2023/08/19 00:06:41;;;;;;;36.28;31.00;;;20.20;99.90;;;;;;5112241;27;20031;-81
2023/08/19 00:09:10;;;;;;;35.60;28.77;;;20.20;99.90;;;;;;5095400;27;20035;-81
2023/08/19 00:11:37;;;;;;;42.33;32.40;;;20.20;99.90;;;;;;5095269;27;20035;-81
2023/08/19 00:14:05;;;;;;;41.58;33.88;;;20.10;99.90;;;;;;5112352;27;20066;-81
2023/08/19 00:16:31;;;;;;;41.53;32.65;;;20.20;99.90;;;;;;5095405;27;20027;-81
2023/08/19 00:18:57;;;;;;;32.40;28.85;;;20.20;99.90;;;;;;5130417;27;20039;-80
2023/08/19 00:21:23;;;;;;;36.35;31.70;;;20.20;99.90;;;;;;5104486;27;20038;-81
2023/08/19 00:23:50;;;;;;;40.90;32.47;;;20.10;99.90;;;;;;5115753;27;20046;-80
2023/08/19 00:26:16;;;;;;;35.40;29.42;;;20.10;99.90;;;;;;5115289;27;20235;-81
2023/08/19 00:28:41;;;;;;;35.70;29.65;;;20.20;99.90;;;;;;5133071;27;20035;-80
2023/08/19 00:31:08;;;;;;;38.88;32.88;;;20.20;99.90;;;;;;5131238;27;20437;-81
2023/08/19 00:33:34;;;;;;;39.58;32.50;;;20.10;99.90;;;;;;5131377;27;20092;-81
2023/08/19 00:36:00;;;;;;;37.15;31.10;;;20.20;99.90;;;;;;5125301;27;20039;-81
2023/08/19 00:38:26;;;;;;;37.10;29.58;;;20.20;99.90;;;;;;5130336;27;20047;-81
2023/08/19 00:40:52;;;;;;;31.35;27.77;;;20.10;99.90;;;;;;5110814;27;20039;-81
2023/08/19 00:43:17;;;;;;;33.92;28.00;;;20.00;99.90;;;;;;5111635;27;20481;-81
2023/08/19 00:45:46;;;;;;;33.55;29.08;;;20.10;99.90;;;;;;5111942;27;20039;-81
2023/08/19 00:48:14;;;;;;;35.28;29.83;;;20.00;99.90;;;;;;5111077;27;20042;-81
2023/08/19 00:50:40;;;;;;;37.92;28.63;;;20.00;99.90;;;;;;5112497;27;20043;-81
2023/08/19 00:53:08;;;;;;;33.13;29.15;;;20.00;99.90;;;;;;5114760;27;20129;-81
2023/08/19 00:55:34;;;;;;;35.63;28.75;;;20.00;99.90;;;;;;5132112;27;20053;-81
2023/08/19 00:58:03;;;;;;;33.95;29.23;;;20.00;99.90;;;;;;5132155;27;20047;-81
2023/08/19 01:00:31;;;;;;;35.45;29.95;;;20.00;99.90;;;;;;5115169;27;20089;-81
2023/08/19 01:03:00;;;;;;;36.70;29.50;;;20.00;99.90;;;;;;5149860;27;20082;-81
2023/08/19 01:06:02;;;;;;;35.58;29.48;;;19.90;99.90;;;;;;5131980;27;20181;-81
2023/08/19 01:08:42;;;;;;;35.92;29.05;;;19.90;99.90;;;;;;5076795;27;20039;-81
2023/08/19 01:11:26;;;;;;;32.45;28.25;;;19.90;99.90;;;;;;5094601;27;20484;-81
2023/08/19 01:14:11;;;;;;;39.55;29.77;;;19.80;99.90;;;;;;5111347;27;20046;-81
2023/08/19 01:16:40;;;;;;;32.83;29.17;;;19.80;99.90;;;;;;5110730;27;20125;-81
2023/08/19 01:19:09;;;;;;;34.53;28.35;;;19.80;99.90;;;;;;5094156;27;20163;-80
2023/08/19 01:21:35;;;;;;;40.70;31.88;;;19.80;99.90;;;;;;5102128;27;20079;-80
2023/08/19 01:24:05;;;;;;;40.65;32.03;;;19.80;99.90;;;;;;5114799;27;20115;-81
2023/08/19 01:26:31;;;;;;;34.53;29.98;;;19.80;99.90;;;;;;5131428;27;20085;-81
2023/08/19 01:28:56;;;;;;;34.35;30.25;;;19.70;99.90;;;;;;5150106;27;20038;-80
2023/08/19 01:31:22;;;;;;;30.67;26.88;;;19.70;99.90;;;;;;5149712;27;20039;-81
2023/08/19 01:33:48;;;;;;;38.55;30.85;;;19.70;99.90;;;;;;5131662;27;20045;-81
2023/08/19 01:36:26;;;;;;;33.47;28.40;;;19.70;99.90;;;;;;5111128;27;20085;-81
2023/08/19 01:39:08;;;;;;;35.00;29.73;;;19.70;99.90;;;;;;5111310;28;20054;-81
2023/08/19 01:41:35;;;;;;;38.78;31.42;;;19.60;99.90;;;;;;5095158;28;20077;-81
2023/08/19 01:44:02;;;;;;;34.92;29.55;;;19.70;99.90;;;;;;5094408;28;20130;-81
2023/08/19 01:46:28;;;;;;;36.40;28.73;;;19.60;99.90;;;;;;5128529;28;20035;-81
2023/08/19 01:48:54;;;;;;;36.83;30.27;;;19.60;99.90;;;;;;5129642;28;20035;-81
2023/08/19 01:51:21;;;;;;;40.00;32.60;;;19.60;99.90;;;;;;5110690;28;20114;-81
2023/08/19 01:53:47;;;;;;;47.65;31.27;;;19.60;99.90;;;;;;5093465;28;20036;-80
2023/08/19 01:56:12;;;;;;;37.55;31.02;;;19.60;99.90;;;;;;5131360;27;20062;-80
2023/08/19 01:58:38;;;;;;;39.42;31.75;;;19.60;99.90;;;;;;5112319;27;20050;-80
2023/08/19 02:01:04;;;;;;;42.92;32.72;;;19.60;99.90;;;;;;5130258;27;20710;-81
2023/08/19 02:03:30;;;;;;;38.78;31.10;;;19.60;99.90;;;;;;5130852;27;20540;-81
2023/08/19 02:05:55;;;;;;;40.05;31.63;;;19.60;99.90;;;;;;5113821;27;20042;-81
2023/08/19 02:08:21;;;;;;;35.90;30.63;;;19.50;99.90;;;;;;5113712;27;20026;-80
2023/08/19 02:10:47;;;;;;;41.05;32.85;;;19.60;99.90;;;;;;5129003;27;20042;-81
2023/08/19 02:13:12;;;;;;;44.30;33.15;;;19.60;99.90;;;;;;5127899;27;20169;-80
2023/08/19 02:15:38;;;;;;;43.58;34.45;;;19.60;99.90;;;;;;5113524;27;20039;-80
2023/08/19 02:18:04;;;;;;;41.83;32.78;;;19.60;99.90;;;;;;5133235;27;20117;-81
2023/08/19 02:20:30;;;;;;;41.05;32.13;;;19.60;99.90;;;;;;5114503;27;20049;-81
2023/08/19 02:22:55;;;;;;;38.22;31.52;;;19.60;99.90;;;;;;5114368;27;20142;-81
2023/08/19 02:25:21;;;;;;;40.97;32.88;;;19.60;99.90;;;;;;5114437;27;20074;-81
2023/08/19 02:27:49;;;;;;;40.60;32.40;;;19.60;99.90;;;;;;5114821;27;20043;-80
2023/08/19 02:30:14;;;;;;;40.47;31.67;;;19.60;99.90;;;;;;5096799;27;20280;-80
2023/08/19 02:32:43;;;;;;;47.13;32.65;;;19.70;99.90;;;;;;5114413;27;20063;-81
2023/08/19 02:35:10;;;;;;;47.05;34.67;;;19.60;99.90;;;;;;5132893;27;20070;-81
2023/08/19 02:37:36;;;;;;;43.60;31.60;;;19.60;99.90;;;;;;5097105;27;20130;-81
2023/08/19 02:40:03;;;;;;;34.78;29.33;;;19.60;99.90;;;;;;5097551;27;20430;-81
2023/08/19 02:42:29;;;;;;;42.63;32.95;;;19.60;99.90;;;;;;5113697;27;20043;-80
2023/08/19 02:44:55;;;;;;;41.83;34.17;;;19.60;99.90;;;;;;5113463;27;20442;-81
2023/08/19 02:47:20;;;;;;;43.55;34.22;;;19.60;99.90;;;;;;5114361;27;20039;-81
2023/08/19 02:49:46;;;;;;;40.58;31.42;;;19.60;99.90;;;;;;5097044;27;20039;-81
2023/08/19 02:52:11;;;;;;;42.67;34.33;;;19.60;99.90;;;;;;5114003;27;20084;-81
2023/08/19 02:54:37;;;;;;;42.63;34.13;;;19.60;99.90;;;;;;5132456;27;20396;-80
2023/08/19 02:57:03;;;;;;;47.72;35.80;;;19.60;99.90;;;;;;5132279;27;20039;-81
2023/08/19 02:59:28;;;;;;;38.83;32.60;;;19.60;99.90;;;;;;5131760;27;20117;-81
2023/08/19 03:01:54;;;;;;;45.13;34.03;;;19.60;99.90;;;;;;5113647;27;20045;-81
2023/08/19 03:04:20;;;;;;;38.08;32.47;;;19.60;99.90;;;;;;5113715;27;20301;-80
2023/08/19 03:06:45;;;;;;;42.53;33.28;;;19.50;99.90;;;;;;5113798;27;20046;-80
2023/08/19 03:09:11;;;;;;;45.50;33.78;;;19.50;99.90;;;;;;5130997;27;20039;-81
2023/08/19 03:11:37;;;;;;;44.72;32.95;;;19.50;99.90;;;;;;5131261;27;20043;-81
2023/08/19 03:14:03;;;;;;;45.33;33.90;;;19.50;99.90;;;;;;5096430;27;20554;-80
2023/08/19 03:16:29;;;;;;;43.42;33.35;;;19.40;99.90;;;;;;5113502;27;20042;-81
2023/08/19 03:18:54;;;;;;;41.05;33.53;;;19.40;99.90;;;;;;5113801;27;20043;-81
2023/08/19 03:21:20;;;;;;;42.83;33.83;;;19.40;99.90;;;;;;5096674;27;20073;-81
2023/08/19 03:23:45;;;;;;;43.42;32.90;;;19.30;99.90;;;;;;5131887;27;20055;-81
2023/08/19 03:26:11;;;;;;;44.63;32.00;;;19.30;99.90;;;;;;5131828;27;20035;-81
2023/08/19 03:28:37;;;;;;;39.38;33.28;;;19.30;99.90;;;;;;5112731;27;20042;-80
2023/08/19 03:31:12;;;;;;;43.78;32.05;;;19.30;99.90;;;;;;5130643;27;20042;-81
2023/08/19 03:33:41;;;;;;;45.88;34.33;;;19.30;99.90;;;;;;5113175;27;20038;-81
2023/08/19 03:36:07;;;;;;;39.13;32.85;;;19.30;99.90;;;;;;5130436;27;20039;-81
2023/08/19 03:38:32;;;;;;;46.08;35.10;;;19.20;99.90;;;;;;5113186;27;20088;-80
2023/08/19 03:40:58;;;;;;;42.08;33.55;;;19.20;99.90;;;;;;5129773;27;20155;-80
2023/08/19 03:43:24;;;;;;;45.10;33.05;;;19.20;99.90;;;;;;5124673;27;20441;-81
2023/08/19 03:45:49;;;;;;;53.78;34.40;;;19.20;99.90;;;;;;5152108;27;20118;-80
2023/08/19 03:48:15;;;;;;;45.72;34.28;;;19.20;99.90;;;;;;5152073;27;20668;-81
2023/08/19 03:50:40;;;;;;;41.90;32.72;;;19.20;99.90;;;;;;5133358;27;20031;-81
2023/08/19 03:53:06;;;;;;;40.90;32.97;;;19.20;99.90;;;;;;5133607;27;20030;-81
2023/08/19 03:55:32;;;;;;;39.10;32.35;;;19.20;99.90;;;;;;5132959;27;20481;-81
2023/08/19 03:57:58;;;;;;;41.95;33.22;;;19.20;99.90;;;;;;5115739;27;20034;-81
2023/08/19 04:00:24;;;;;;;46.40;35.53;;;19.20;99.90;;;;;;5133012;27;20038;-81
2023/08/19 04:02:50;;;;;;;45.75;33.08;;;19.20;99.90;;;;;;5133308;27;20038;-81
2023/08/19 04:05:16;;;;;;;45.47;34.65;;;19.20;99.90;;;;;;5151741;27;20126;-80
2023/08/19 04:07:41;;;;;;;46.35;33.72;;;19.20;99.90;;;;;;5133263;27;20035;-81
2023/08/19 04:10:08;;;;;;;42.70;33.08;;;19.20;99.90;;;;;;5123742;27;20039;-80
2023/08/19 04:12:34;;;;;;;45.05;33.58;;;19.10;99.90;;;;;;5095612;27;20393;-81
2023/08/19 04:15:00;;;;;;;41.75;33.47;;;19.20;99.90;;;;;;5130821;27;20037;-81
2023/08/19 04:17:25;;;;;;;41.05;33.70;;;19.20;99.90;;;;;;5130817;27;20107;-81
2023/08/19 04:19:51;;;;;;;42.17;34.28;;;19.20;99.90;;;;;;5112182;27;20716;-81
2023/08/19 04:22:17;;;;;;;41.50;32.20;;;19.20;99.90;;;;;;5108475;28;20054;-81
2023/08/19 04:24:49;;;;;;;42.60;31.42;;;19.20;99.90;;;;;;5108170;28;20110;-81
2023/08/19 04:27:15;;;;;;;44.75;32.28;;;19.20;99.90;;;;;;5091657;28;20134;-81
2023/08/19 04:29:41;;;;;;;41.90;33.13;;;19.20;99.90;;;;;;5125571;27;20130;-81
2023/08/19 04:32:07;;;;;;;35.58;30.20;;;19.20;99.90;;;;;;5108518;28;20032;-80
2023/08/19 04:34:33;;;;;;;39.90;30.75;;;19.30;99.90;;;;;;5110061;28;20097;-81
2023/08/19 04:36:58;;;;;;;39.67;30.70;;;19.40;99.90;;;;;;5109009;28;20047;-81
2023/08/19 04:39:24;;;;;;;36.53;30.05;;;19.40;99.90;;;;;;5108110;27;20035;-81
2023/08/19 04:41:50;;;;;;;35.47;30.17;;;19.40;99.90;;;;;;5109728;28;20031;-80
2023/08/19 04:44:16;;;;;;;37.83;29.95;;;19.40;99.90;;;;;;5108513;28;20099;-81
2023/08/19 04:46:42;;;;;;;33.67;27.83;;;19.50;99.90;;;;;;5108374;28;20402;-80
2023/08/19 04:49:08;;;;;;;35.63;28.33;;;19.50;99.90;;;;;;5108290;28;20084;-81
2023/08/19 04:51:35;;;;;;;29.55;26.38;;;19.60;99.90;;;;;;5108506;28;20031;-80
2023/08/19 04:54:03;;;;;;;31.27;25.40;;;19.60;99.90;;;;;;5113929;27;20031;-81
2023/08/19 04:56:29;;;;;;;28.70;25.05;;;19.70;99.90;;;;;;5128770;27;20091;-81
2023/08/19 04:58:55;;;;;;;28.48;25.25;;;19.70;99.90;;;;;;5128688;27;20046;-82
2023/08/19 05:01:22;;;;;;;30.75;25.08;;;19.80;99.90;;;;;;5111354;27;20046;-81
2023/08/19 05:03:47;;;;;;;29.45;24.60;;;19.90;99.90;;;;;;5130128;27;20118;-80
2023/08/19 05:06:13;;;;;;;29.38;23.70;;;20.00;99.90;;;;;;5111573;27;20126;-81
2023/08/19 05:08:38;;;;;;;31.42;23.25;;;20.00;99.90;;;;;;5127333;27;20027;-82
2023/08/19 05:11:04;;;;;;;30.40;22.65;;;20.10;99.90;;;;;;5111696;27;20035;-80
2023/08/19 05:13:30;;;;;;;25.33;21.90;;;20.20;99.90;;;;;;5113508;27;20538;-82
2023/08/19 05:15:59;;;;;;;28.88;21.85;;;20.30;99.90;;;;;;5128857;27;20581;-82
2023/08/19 05:18:25;;;;;;;26.33;21.70;;;20.30;99.90;;;;;;5112009;28;20081;-81
2023/08/19 05:20:50;;;;;;;28.42;21.13;;;20.40;99.90;;;;;;5130079;27;20063;-81
2023/08/19 05:23:16;;;;;;;24.52;20.63;;;20.40;99.90;;;;;;5142075;27;20538;-80
2023/08/19 05:25:43;;;;;;;25.23;20.45;;;20.50;99.90;;;;;;5111253;28;20039;-81
2023/08/19 05:28:09;;;;;;;23.10;20.60;;;20.50;99.90;;;;;;5111488;28;20122;-80
2023/08/19 05:30:35;;;;;;;23.67;19.33;;;20.60;99.90;;;;;;5094297;28;20035;-80
2023/08/19 05:33:01;;;;;;;26.65;19.27;;;20.60;99.90;;;;;;5111069;28;20405;-80
2023/08/19 05:35:27;;;;;;;22.90;18.42;;;20.60;99.90;;;;;;5111520;28;20112;-81
2023/08/19 05:37:52;;;;;;;21.02;18.75;;;20.50;99.90;;;;;;5144876;27;20043;-81
2023/08/19 05:40:18;;;;;;;21.02;18.48;;;20.70;99.90;;;;;;5146260;27;20036;-82
2023/08/19 05:42:44;;;;;;;22.52;18.02;;;20.70;99.90;;;;;;5145535;27;20042;-80
2023/08/19 05:45:10;;;;;;;24.48;17.95;;;20.70;99.90;;;;;;5128103;28;20082;-81
2023/08/19 05:47:37;;;;;;;20.40;18.23;;;20.70;99.90;;;;;;5111022;27;20039;-81
2023/08/19 05:50:03;;;;;;;21.35;18.30;;;20.70;99.90;;;;;;5132958;27;20501;-81
2023/08/19 05:52:29;;;;;;;23.13;17.50;;;20.70;99.90;;;;;;5097631;27;20503;-81
2023/08/19 05:54:55;;;;;;;23.42;18.90;;;20.70;99.90;;;;;;5114972;27;20043;-82
2023/08/19 05:57:20;;;;;;;22.35;18.45;;;20.70;99.90;;;;;;5132352;27;20031;-81
2023/08/19 05:59:46;;;;;;;20.55;18.35;;;20.70;99.90;;;;;;5132287;27;20074;-80
2023/08/19 06:02:12;;;;;;;22.27;17.75;;;20.80;99.90;;;;;;5115086;27;20084;-82
2023/08/19 06:04:37;;;;;;;20.73;16.98;;;20.80;99.90;;;;;;5132054;27;20069;-81
2023/08/19 06:07:03;;;;;;;19.25;16.75;;;20.90;99.90;;;;;;5097200;27;20043;-81
2023/08/19 06:09:29;;;;;;;19.55;16.17;;;21.00;99.90;;;;;;5114912;27;20035;-81
2023/08/19 06:11:55;;;;;;;22.17;18.05;;;21.00;99.90;;;;;;5114683;27;20435;-81
2023/08/19 06:14:20;;;;;;;23.27;15.98;;;21.10;99.90;;;;;;5133227;27;20054;-82
2023/08/19 06:16:46;;;;;;;22.30;16.38;;;21.20;99.90;;;;;;5132106;27;20039;-82
2023/08/19 06:19:13;;;;;;;21.08;15.57;;;21.30;99.90;;;;;;5115020;27;20049;-81
2023/08/19 06:21:39;;;;;;;21.45;15.75;;;21.30;99.90;;;;;;5124478;27;20114;-82
2023/08/19 06:24:05;;;;;;;17.90;15.05;;;21.40;99.90;;;;;;5117757;27;20277;-82
2023/08/19 06:26:31;;;;;;;19.35;15.40;;;21.60;99.90;;;;;;5135259;27;20066;-82
2023/08/19 06:28:56;;;;;;;17.75;15.15;;;21.60;99.90;;;;;;5135462;27;20614;-82
2023/08/19 06:31:22;;;;;;;21.65;15.35;;;21.70;99.90;;;;;;5135106;27;20133;-82
2023/08/19 06:33:50;;;;;;;15.70;14.05;;;21.90;99.90;;;;;;5117931;27;20035;-82
2023/08/19 06:36:20;;;;;;;15.40;13.82;;;22.00;99.90;;;;;;5152285;27;20038;-82
2023/08/19 06:38:51;;;;;;;16.90;14.13;;;22.10;99.90;;;;;;5134337;27;20045;-83
2023/08/19 06:41:17;;;;;;;14.07;12.68;;;22.30;99.90;;;;;;5117528;27;20035;-82
2023/08/19 06:43:43;;;;;;;13.95;12.07;;;22.40;99.90;;;;;;5152028;27;20125;-82
2023/08/19 06:46:10;;;;;;;18.20;12.25;;;22.50;99.90;;;;;;5134295;27;20135;-83
2023/08/19 06:48:36;;;;;;;14.50;12.52;;;22.40;99.90;;;;;;5117212;27;20039;-82
2023/08/19 06:51:03;;;;;;;15.80;12.00;;;22.30;99.90;;;;;;5128320;27;20054;-83
2023/08/19 06:53:29;;;;;;;15.35;12.30;;;22.30;99.90;;;;;;5096776;27;20123;-83
2023/08/19 06:56:20;;;;;;;15.18;12.63;;;22.30;99.90;;;;;;5113558;27;20631;-82
2023/08/19 06:58:54;;;;;;;12.73;11.35;;;22.20;99.90;;;;;;5113582;27;20054;-82
2023/08/19 07:01:26;;;;;;;15.00;12.45;;;22.10;99.90;;;;;;5096067;27;20043;-82
2023/08/19 07:03:52;;;;;;;13.60;12.13;;;22.10;99.90;;;;;;5131557;27;20031;-82
2023/08/19 07:06:20;;;;;;;15.77;12.20;;;22.10;99.90;;;;;;5113289;27;20047;-82
2023/08/19 07:08:46;;;;;;;14.30;12.73;;;22.10;99.90;;;;;;5096241;27;20045;-81
2023/08/19 07:11:12;;;;;;;17.45;13.30;;;22.10;99.90;;;;;;5113507;27;20035;-83
2023/08/19 07:13:38;;;;;;;17.30;13.25;;;22.00;99.90;;;;;;5096386;27;20031;-84
2023/08/19 07:16:05;;;;;;;16.90;12.43;;;22.00;99.90;;;;;;5114505;27;20564;-85
2023/08/19 07:18:37;;;;;;;15.50;13.25;;;22.10;99.90;;;;;;5098357;27;20047;-82
2023/08/19 07:21:04;;;;;;;16.02;12.82;;;22.10;99.90;;;;;;5119829;27;20039;-85
2023/08/19 07:23:30;;;;;;;15.10;13.02;;;22.10;99.90;;;;;;5136569;27;20297;-86
2023/08/19 07:25:57;;;;;;;16.73;12.60;;;22.20;99.90;;;;;;5119350;27;20034;-84
2023/08/19 07:28:24;;;;;;;13.95;12.48;;;22.30;99.90;;;;;;5134699;27;20055;-83
2023/08/19 07:30:50;;;;;;;15.27;13.77;;;22.30;99.90;;;;;;5153433;27;20075;-86
2023/08/19 07:33:16;;;;;;;13.93;12.30;;;22.50;99.90;;;;;;5134125;27;20122;-85
2023/08/19 07:35:43;;;;;;;15.73;12.10;;;22.50;99.90;;;;;;5133367;27;20066;-85
2023/08/19 07:38:09;;;;;;;16.95;11.57;;;22.60;99.90;;;;;;5117312;27;20083;-85
2023/08/19 07:40:35;;;;;;;12.82;11.30;;;22.70;99.90;;;;;;5152494;27;20081;-85
2023/08/19 07:43:01;;;;;;;16.40;11.82;;;22.70;99.90;;;;;;5116963;27;20069;-82
2023/08/19 07:45:26;;;;;;;13.90;12.43;;;22.80;99.90;;;;;;5151924;27;20042;-84
2023/08/19 07:47:52;;;;;;;14.77;13.30;;;22.90;99.90;;;;;;5133203;27;20121;-83
2023/08/19 07:50:17;;;;;;;15.38;12.50;;;22.90;99.90;;;;;;5113547;27;20469;-84
2023/08/19 07:52:43;;;;;;;17.98;12.65;;;23.10;99.90;;;;;;5112774;27;20127;-83
2023/08/19 07:55:10;;;;;;;15.68;11.93;;;23.10;99.90;;;;;;5112589;27;20043;-82
2023/08/19 07:57:36;;;;;;;12.18;10.93;;;23.20;99.90;;;;;;5112576;27;20159;-83
2023/08/19 08:00:02;;;;;;;16.27;11.35;;;23.30;99.90;;;;;;5095436;27;20133;-83
2023/08/19 08:02:27;;;;;;;16.40;11.50;;;23.40;99.90;;;;;;5095297;27;20036;-83
2023/08/19 08:04:53;;;;;;;16.13;11.55;;;23.40;99.90;;;;;;5112519;27;20088;-83
2023/08/19 08:07:19;;;;;;;13.43;11.02;;;23.40;99.90;;;;;;5112077;27;20457;-83
2023/08/19 08:09:45;;;;;;;15.60;10.45;;;23.50;99.90;;;;;;5131681;27;20658;-82
2023/08/19 08:12:11;;;;;;;12.27;11.10;;;23.50;99.90;;;;;;5094071;27;20034;-82
2023/08/19 08:14:37;;;;;;;16.00;10.65;;;23.50;99.90;;;;;;5112737;27;20031;-83
2023/08/19 08:17:03;;;;;;;13.95;11.05;;;23.60;99.90;;;;;;5129305;27;20039;-83
2023/08/19 08:19:28;;;;;;;13.77;10.55;;;23.60;99.90;;;;;;5112920;27;20039;-83
2023/08/19 08:21:54;;;;;;;11.88;10.52;;;23.60;99.90;;;;;;5112939;27;20137;-84
2023/08/19 08:24:21;;;;;;;16.08;9.52;;;23.70;99.90;;;;;;5095261;27;20043;-83
2023/08/19 08:26:47;;;;;;;11.73;10.52;;;23.90;99.90;;;;;;5096163;27;20043;-83
2023/08/19 08:29:12;;;;;;;12.18;10.93;;;24.10;99.90;;;;;;5112449;27;20034;-82
2023/08/19 08:31:38;;;;;;;11.90;10.68;;;24.20;99.90;;;;;;5128558;27;20084;-82
2023/08/19 08:34:04;;;;;;;16.08;10.52;;;24.30;99.90;;;;;;5112216;27;20039;-82
2023/08/19 08:36:30;;;;;;;14.05;11.40;;;24.30;99.90;;;;;;5094390;27;20052;-81
2023/08/19 08:38:56;;;;;;;13.98;11.50;;;24.40;99.90;;;;;;5117227;27;20476;-80
2023/08/19 08:41:22;;;;;;;12.07;10.98;;;24.40;99.90;;;;;;5128618;27;20035;-80
2023/08/19 08:43:48;;;;;;;12.13;10.88;;;24.40;99.90;;;;;;5145921;27;20035;-80
2023/08/19 08:46:15;;;;;;;13.30;12.07;;;24.40;99.90;;;;;;5111414;27;20372;-80
2023/08/19 08:48:43;;;;;;;15.38;11.57;;;24.40;99.90;;;;;;5094521;27;20032;-80
2023/08/19 08:51:09;;;;;;;13.20;11.80;;;24.50;99.90;;;;;;5112346;27;20481;-81
2023/08/19 08:53:35;;;;;;;15.10;12.35;;;24.60;99.90;;;;;;5095450;27;20027;-81
2023/08/19 08:56:02;;;;;;;13.98;12.63;;;24.60;99.90;;;;;;5094695;27;20049;-83
2023/08/19 08:58:28;;;;;;;17.67;16.33;;;24.80;99.90;;;;;;5094570;27;20039;-81
2023/08/19 09:00:54;;;;;;;17.83;16.13;;;24.90;99.90;;;;;;5128422;27;20041;-81
2023/08/19 09:03:28;;;;;;;16.40;15.00;;;25.10;99.90;;;;;;5128987;27;20031;-82
2023/08/19 09:06:03;;;;;;;18.45;16.83;;;25.30;99.90;;;;;;5112466;27;20034;-83
2023/08/19 09:08:41;;;;;;;16.55;15.05;;;25.60;99.90;;;;;;5114847;27;20083;-82
2023/08/19 09:11:13;;;;;;;15.07;13.70;;;25.90;99.90;;;;;;5114998;27;20027;-83
2023/08/19 09:13:41;;;;;;;12.47;10.37;;;26.30;99.90;;;;;;5115767;27;20391;-84
2023/08/19 09:16:10;;;;;;;14.05;11.23;;;26.70;99.90;;;;;;5115401;27;20043;-84
2023/08/19 09:18:37;;;;;;;20.85;19.25;;;26.80;99.90;;;;;;5132459;27;20038;-84
2023/08/19 09:21:03;;;;;;;11.82;10.68;;;26.90;99.90;;;;;;5114977;27;20039;-83
2023/08/19 09:23:30;;;;;;;12.52;11.20;;;27.10;99.90;;;;;;5131872;27;20123;-83
2023/08/19 09:26:00;;;;;;;13.18;11.43;;;27.50;99.90;;;;;;5131704;27;20039;-84
2023/08/19 09:28:26;;;;;;;16.90;14.73;;;27.80;99.90;;;;;;5131903;27;20070;-83
2023/08/19 09:30:52;;;;;;;13.10;11.98;;;27.70;99.90;;;;;;5131121;27;20066;-82
2023/08/19 09:33:21;;;;;;;15.70;14.10;;;27.70;99.90;;;;;;5114134;27;20038;-81
2023/08/19 09:35:55;;;;;;;12.32;11.32;;;27.60;99.90;;;;;;5117047;27;20046;-81
2023/08/19 09:38:23;;;;;;;13.30;12.07;;;27.60;99.90;;;;;;5114573;27;20042;-82
2023/08/19 09:41:02;;;;;;;12.95;11.57;;;27.50;99.90;;;;;;5131118;27;20130;-82
2023/08/19 09:43:28;;;;;;;16.48;14.98;;;27.40;99.90;;;;;;5130005;27;20064;-82
2023/08/19 09:45:58;;;;;;;16.65;15.23;;;27.40;99.90;;;;;;5113080;27;20035;-82
2023/08/19 09:48:25;;;;;;;17.42;14.57;;;27.40;99.90;;;;;;5113383;27;20083;-82
2023/08/19 09:50:51;;;;;;;15.07;13.57;;;27.30;99.90;;;;;;5114308;27;20031;-82
2023/08/19 09:53:17;;;;;;;14.90;13.40;;;27.30;99.90;;;;;;5131403;27;20041;-82
2023/08/19 09:55:50;;;;;;;13.93;12.82;;;27.30;99.90;;;;;;5131257;27;20167;-82
2023/08/19 09:58:16;;;;;;;;;;;27.40;99.90;;;;;;5113296;27;20048;-82
2023/08/19 10:00:42;;;;;;;17.77;15.63;;;27.40;99.90;;;;;;5113745;27;19993;-83
2023/08/19 10:03:08;;;;;;;15.95;14.55;;;27.60;99.90;;;;;;5112413;27;20468;-82
2023/08/19 10:05:47;;;;;;;14.73;13.63;;;27.60;99.90;;;;;;5110711;28;20126;-81
2023/08/19 10:08:23;;;;;;;15.32;12.25;;;27.70;99.90;;;;;;5110304;28;20035;-81
2023/08/19 10:10:48;;;;;;;16.90;15.30;;;27.70;99.90;;;;;;5110035;28;20035;-80
2023/08/19 10:13:16;;;;;;;17.17;15.77;;;27.80;99.90;;;;;;5093116;28;20050;-81
2023/08/19 10:15:43;;;;;;;17.10;15.10;;;27.70;99.90;;;;;;5093497;28;20400;-81
2023/08/19 10:18:14;;;;;;;15.57;14.27;;;27.70;99.90;;;;;;5134217;27;20422;-82
2023/08/19 10:20:42;;;;;;;15.75;14.27;;;27.70;99.90;;;;;;5130918;27;20042;-82
2023/08/19 10:23:10;;;;;;;15.63;14.15;;;27.60;99.90;;;;;;5113583;27;20457;-82
2023/08/19 10:25:36;;;;;;;20.13;18.02;;;27.40;99.90;;;;;;5149687;27;20043;-82
2023/08/19 10:28:11;;;;;;;20.38;18.40;;;27.10;99.90;;;;;;5130312;27;20476;-82
2023/08/19 10:30:38;;;;;;;19.20;17.52;;;26.90;99.90;;;;;;5131088;27;20027;-82
2023/08/19 10:33:27;;;;;;;22.13;20.08;;;26.60;99.90;;;;;;5149013;27;20046;-82
2023/08/19 10:36:00;;;;;;;18.55;16.65;;;26.30;99.90;;;;;;5131794;27;20038;-81
2023/08/19 10:38:43;;;;;;;17.98;16.25;;;26.10;99.90;;;;;;5132934;27;20050;-82
2023/08/19 10:41:29;;;;;;;14.27;12.98;;;25.80;99.90;;;;;;5131759;27;20038;-81
2023/08/19 10:44:05;;;;;;;14.43;12.55;;;25.50;99.90;;;;;;5150106;27;20702;-81
2023/08/19 10:46:33;;;;;;;13.32;11.43;;;25.40;99.90;;;;;;5133554;27;20035;-81
2023/08/19 10:48:59;;;;;;;16.45;12.05;;;25.20;99.90;;;;;;5132475;27;20043;-81
2023/08/19 10:52:00;;;;;;;13.88;12.50;;;25.10;99.90;;;;;;5132816;27;20131;-81
2023/08/19 10:54:43;;;;;;;12.45;10.48;;;25.20;99.90;;;;;;5114755;27;20086;-81
2023/08/19 10:57:23;;;;;;;13.30;10.82;;;25.20;99.90;;;;;;5133570;27;20038;-81
2023/08/19 10:59:58;;;;;;;11.63;10.40;;;25.40;99.90;;;;;;5133870;27;20039;-81
2023/08/19 11:02:25;;;;;;;13.77;10.15;;;25.50;99.90;;;;;;5117876;27;20145;-81
2023/08/19 11:04:51;;;;;;;16.13;10.30;;;25.60;99.90;;;;;;5148819;27;20035;-80
2023/08/19 11:07:18;;;;;;;12.35;11.05;;;25.70;99.90;;;;;;5131946;27;20165;-81
2023/08/19 11:09:46;;;;;;;13.07;11.70;;;25.70;99.90;;;;;;5114832;27;20031;-81
2023/08/19 11:12:16;;;;;;;13.80;12.35;;;25.70;99.90;;;;;;5117383;27;20087;-81
2023/08/19 11:14:49;;;;;;;14.63;11.20;;;25.70;99.90;;;;;;5132492;27;20041;-81
2023/08/19 11:17:15;;;;;;;15.98;11.63;;;25.70;99.90;;;;;;5132160;27;20031;-82
2023/08/19 11:19:41;;;;;;;12.50;11.02;;;25.70;99.90;;;;;;5115579;27;20036;-82
2023/08/19 11:22:10;;;;;;;11.93;10.70;;;25.80;99.90;;;;;;5132017;27;20045;-84
2023/08/19 11:24:36;;;;;;;11.98;10.48;;;25.90;99.90;;;;;;5175759;27;20057;-84
2023/08/19 11:27:02;;;;;;;13.15;11.85;;;26.00;99.90;;;;;;5137399;27;20042;-84
2023/08/19 11:29:29;;;;;;;13.05;10.38;;;26.30;99.90;;;;;;5155489;27;20368;-84
2023/08/19 11:31:55;;;;;;;12.55;10.57;;;26.60;99.90;;;;;;5163033;27;20113;-85
2023/08/19 11:34:21;;;;;;;15.23;10.20;;;26.90;99.90;;;;;;5174630;27;20094;-81
2023/08/19 11:36:47;;;;;;;16.13;11.60;;;27.30;99.90;;;;;;5136148;27;20038;-81
2023/08/19 11:39:12;;;;;;;14.82;12.20;;;27.70;99.90;;;;;;5153901;27;20030;-83
2023/08/19 11:41:39;;;;;;;20.23;18.30;;;28.00;99.90;;;;;;5144827;27;20035;-81
2023/08/19 11:44:06;;;;;;;20.25;17.48;;;28.20;99.90;;;;;;5133582;27;20404;-82
2023/08/19 11:46:33;;;;;;;20.60;16.20;;;28.20;99.90;;;;;;5151847;27;20085;-81
2023/08/19 11:49:03;;;;;;;18.15;16.30;;;28.20;99.90;;;;;;5132751;27;20038;-83
2023/08/19 11:51:29;;;;;;;22.70;20.52;;;28.10;99.90;;;;;;5133445;27;20077;-83
2023/08/19 11:54:01;;;;;;;18.65;16.75;;;28.00;99.90;;;;;;5133324;27;20440;-84
2023/08/19 11:56:27;;;;;;;19.83;18.10;;;28.10;99.90;;;;;;5151737;27;20114;-83
2023/08/19 11:58:54;;;;;;;22.88;20.95;;;28.10;99.90;;;;;;5151609;27;20428;-83
2023/08/19 12:01:24;;;;;;;18.58;16.98;;;28.20;99.90;;;;;;5151580;27;20610;-82
2023/08/19 12:03:51;;;;;;;22.92;20.90;;;28.10;99.90;;;;;;5132293;27;20038;-82
2023/08/19 12:06:18;;;;;;;20.88;18.80;;;28.30;99.90;;;;;;5131413;27;20023;-82
2023/08/19 12:08:45;;;;;;;24.17;22.05;;;28.50;99.90;;;;;;5130962;27;20039;-82
2023/08/19 12:11:12;;;;;;;22.48;20.40;;;28.40;99.90;;;;;;5114642;27;20038;-84
2023/08/19 12:13:38;;;;;;;24.65;22.40;;;28.50;99.90;;;;;;5133409;27;20035;-82
2023/08/19 12:16:05;;;;;;;23.08;20.42;;;28.70;99.90;;;;;;5132209;27;20460;-82
2023/08/19 12:18:32;;;;;;;24.27;21.95;;;28.70;99.90;;;;;;5150830;27;20043;-81
2023/08/19 12:20:59;;;;;;;22.50;20.13;;;28.80;99.90;;;;;;5131911;27;20047;-81
2023/08/19 12:23:25;;;;;;;22.75;20.45;;;28.80;99.90;;;;;;5115093;27;20050;-82
2023/08/19 12:25:57;;;;;;;27.15;24.23;;;28.90;99.90;;;;;;5115918;27;20041;-82
2023/08/19 12:28:24;;;;;;;24.88;22.52;;;28.90;99.90;;;;;;5111643;27;20045;-82
2023/08/19 12:30:51;;;;;;;28.20;25.00;;;29.00;99.90;;;;;;5134246;27;20042;-81